Terminal Aerodrome Forecast
Issued by NWS Pocatello, ID

Home | Current Version | Previous Version | Text Only | Print | Product List | Glossary On
Versions: 1 2 3 4 5 6 7 8 9 10 11 12 13 14 15 16 17 18 19 20 21
000
FTUS45 KPIH 301300 AAA
TAFIDA
TAF AMD
KIDA 301351Z 3014/0112 22012KT P6SM VCSH OVC006
     FM301800 21015G25KT P6SM VCSH BKN010 BKN030
     FM302000 23022G32KT P6SM FEW025 BKN080
     FM010300 21015KT P6SM VCSH SCT030 OVC060
     FM010500 23010KT P6SM VCSH BKN030 OVC050=

USA.gov is the U.S. government's official web portal to all federal, state and local government web resources and services.